sensor_id;sensor_type;location;lat;lon;timestamp;P1;durP1;ratioP1;P2;durP2;ratioP2
65936;SDS011;52707;52.086;5.418;2023-11-21T00:01:59;36.60;;;14.35;;
65936;SDS011;52707;52.086;5.418;2023-11-21T00:04:26;26.90;;;12.48;;
65936;SDS011;52707;52.086;5.418;2023-11-21T00:06:54;34.78;;;14.43;;
65936;SDS011;52707;52.086;5.418;2023-11-21T00:09:21;29.48;;;12.60;;
65936;SDS011;52707;52.086;5.418;2023-11-21T00:11:47;29.65;;;12.00;;
65936;SDS011;52707;52.086;5.418;2023-11-21T00:14:14;21.88;;;11.85;;
65936;SDS011;52707;52.086;5.418;2023-11-21T00:16:43;28.80;;;13.40;;
65936;SDS011;52707;52.086;5.418;2023-11-21T00:19:10;24.20;;;11.60;;
65936;SDS011;52707;52.086;5.418;2023-11-21T00:21:36;25.00;;;12.38;;
65936;SDS011;52707;52.086;5.418;2023-11-21T00:24:03;28.58;;;13.10;;
65936;SDS011;52707;52.086;5.418;2023-11-21T00:26:30;30.25;;;14.13;;
65936;SDS011;52707;52.086;5.418;2023-11-21T00:29:02;33.13;;;13.32;;
65936;SDS011;52707;52.086;5.418;2023-11-21T00:31:29;30.27;;;12.40;;
65936;SDS011;52707;52.086;5.418;2023-11-21T00:33:57;24.67;;;12.80;;
65936;SDS011;52707;52.086;5.418;2023-11-21T00:36:23;32.35;;;12.10;;
65936;SDS011;52707;52.086;5.418;2023-11-21T00:38:49;47.03;;;14.07;;
65936;SDS011;52707;52.086;5.418;2023-11-21T00:41:16;39.75;;;12.27;;
65936;SDS011;52707;52.086;5.418;2023-11-21T00:43:43;50.72;;;13.32;;
65936;SDS011;52707;52.086;5.418;2023-11-21T00:46:10;87.78;;;15.02;;
65936;SDS011;52707;52.086;5.418;2023-11-21T00:48:36;82.85;;;14.50;;
65936;SDS011;52707;52.086;5.418;2023-11-21T00:51:03;70.40;;;13.77;;
65936;SDS011;52707;52.086;5.418;2023-11-21T00:53:29;58.40;;;13.05;;
65936;SDS011;52707;52.086;5.418;2023-11-21T00:55:56;52.30;;;12.70;;
65936;SDS011;52707;52.086;5.418;2023-11-21T00:58:24;72.68;;;14.05;;
65936;SDS011;52707;52.086;5.418;2023-11-21T01:00:50;55.47;;;13.82;;
65936;SDS011;52707;52.086;5.418;2023-11-21T01:03:17;66.80;;;12.60;;
65936;SDS011;52707;52.086;5.418;2023-11-21T01:05:43;38.35;;;11.27;;
65936;SDS011;52707;52.086;5.418;2023-11-21T01:08:10;20.05;;;10.98;;
65936;SDS011;52707;52.086;5.418;2023-11-21T01:10:36;18.52;;;11.30;;
65936;SDS011;52707;52.086;5.418;2023-11-21T01:13:03;18.27;;;10.32;;
65936;SDS011;52707;52.086;5.418;2023-11-21T01:15:33;16.42;;;10.05;;
65936;SDS011;52707;52.086;5.418;2023-11-21T01:18:00;19.27;;;9.93;;
65936;SDS011;52707;52.086;5.418;2023-11-21T01:20:26;17.58;;;10.15;;
65936;SDS011;52707;52.086;5.418;2023-11-21T01:22:53;15.20;;;9.60;;
65936;SDS011;52707;52.086;5.418;2023-11-21T01:25:19;15.52;;;9.02;;
65936;SDS011;52707;52.086;5.418;2023-11-21T01:27:47;17.08;;;9.43;;
65936;SDS011;52707;52.086;5.418;2023-11-21T01:30:13;18.15;;;8.50;;
65936;SDS011;52707;52.086;5.418;2023-11-21T01:32:40;14.93;;;9.00;;
65936;SDS011;52707;52.086;5.418;2023-11-21T01:35:07;18.58;;;9.73;;
65936;SDS011;52707;52.086;5.418;2023-11-21T01:37:33;15.10;;;8.80;;
65936;SDS011;52707;52.086;5.418;2023-11-21T01:40:00;18.05;;;9.13;;
65936;SDS011;52707;52.086;5.418;2023-11-21T01:42:27;16.48;;;9.18;;
65936;SDS011;52707;52.086;5.418;2023-11-21T01:44:55;17.25;;;9.57;;
65936;SDS011;52707;52.086;5.418;2023-11-21T01:47:21;19.40;;;8.18;;
65936;SDS011;52707;52.086;5.418;2023-11-21T01:49:48;11.60;;;8.23;;
65936;SDS011;52707;52.086;5.418;2023-11-21T01:52:14;16.45;;;8.25;;
65936;SDS011;52707;52.086;5.418;2023-11-21T01:54:41;18.58;;;9.70;;
65936;SDS011;52707;52.086;5.418;2023-11-21T01:57:08;12.48;;;8.15;;
65936;SDS011;52707;52.086;5.418;2023-11-21T01:59:35;12.80;;;7.97;;
65936;SDS011;52707;52.086;5.418;2023-11-21T02:02:05;13.75;;;7.60;;
65936;SDS011;52707;52.086;5.418;2023-11-21T02:04:32;15.52;;;8.00;;
65936;SDS011;52707;52.086;5.418;2023-11-21T02:06:59;13.90;;;7.47;;
65936;SDS011;52707;52.086;5.418;2023-11-21T02:09:26;10.93;;;7.13;;
65936;SDS011;52707;52.086;5.418;2023-11-21T02:11:53;15.13;;;7.90;;
65936;SDS011;52707;52.086;5.418;2023-11-21T02:14:27;14.75;;;8.20;;
65936;SDS011;52707;52.086;5.418;2023-11-21T02:16:54;13.80;;;7.57;;
65936;SDS011;52707;52.086;5.418;2023-11-21T02:19:21;18.38;;;7.72;;
65936;SDS011;52707;52.086;5.418;2023-11-21T02:21:56;16.10;;;7.60;;
65936;SDS011;52707;52.086;5.418;2023-11-21T02:24:25;16.85;;;7.80;;
65936;SDS011;52707;52.086;5.418;2023-11-21T02:26:53;12.57;;;8.05;;
65936;SDS011;52707;52.086;5.418;2023-11-21T02:29:20;13.05;;;7.75;;
65936;SDS011;52707;52.086;5.418;2023-11-21T02:31:49;17.60;;;8.20;;
65936;SDS011;52707;52.086;5.418;2023-11-21T02:34:16;20.42;;;8.00;;
65936;SDS011;52707;52.086;5.418;2023-11-21T02:36:45;16.95;;;7.72;;
65936;SDS011;52707;52.086;5.418;2023-11-21T02:39:11;18.17;;;8.32;;
65936;SDS011;52707;52.086;5.418;2023-11-21T02:41:39;19.05;;;7.72;;
65936;SDS011;52707;52.086;5.418;2023-11-21T02:44:06;15.38;;;7.85;;
65936;SDS011;52707;52.086;5.418;2023-11-21T02:46:33;13.05;;;7.30;;
65936;SDS011;52707;52.086;5.418;2023-11-21T02:49:03;17.27;;;8.02;;
65936;SDS011;52707;52.086;5.418;2023-11-21T02:51:30;18.23;;;7.63;;
65936;SDS011;52707;52.086;5.418;2023-11-21T02:53:56;19.95;;;7.32;;
65936;SDS011;52707;52.086;5.418;2023-11-21T02:56:26;22.70;;;8.20;;
65936;SDS011;52707;52.086;5.418;2023-11-21T02:58:56;15.85;;;7.45;;
65936;SDS011;52707;52.086;5.418;2023-11-21T03:01:23;14.57;;;7.60;;
65936;SDS011;52707;52.086;5.418;2023-11-21T03:03:53;19.25;;;7.22;;
65936;SDS011;52707;52.086;5.418;2023-11-21T03:06:19;15.75;;;7.25;;
65936;SDS011;52707;52.086;5.418;2023-11-21T03:08:46;16.45;;;7.72;;
65936;SDS011;52707;52.086;5.418;2023-11-21T03:11:13;17.42;;;7.30;;
65936;SDS011;52707;52.086;5.418;2023-11-21T03:13:40;25.77;;;7.95;;
65936;SDS011;52707;52.086;5.418;2023-11-21T03:16:10;16.15;;;7.60;;
65936;SDS011;52707;52.086;5.418;2023-11-21T03:18:37;21.00;;;9.85;;
65936;SDS011;52707;52.086;5.418;2023-11-21T03:21:04;14.90;;;7.85;;
65936;SDS011;52707;52.086;5.418;2023-11-21T03:23:31;21.95;;;8.07;;
65936;SDS011;52707;52.086;5.418;2023-11-21T03:25:57;11.55;;;7.35;;
65936;SDS011;52707;52.086;5.418;2023-11-21T03:28:26;23.90;;;9.23;;
65936;SDS011;52707;52.086;5.418;2023-11-21T03:30:53;21.25;;;9.07;;
65936;SDS011;52707;52.086;5.418;2023-11-21T03:33:19;29.02;;;9.07;;
65936;SDS011;52707;52.086;5.418;2023-11-21T03:35:46;13.98;;;8.10;;
65936;SDS011;52707;52.086;5.418;2023-11-21T03:38:12;15.65;;;9.27;;
65936;SDS011;52707;52.086;5.418;2023-11-21T03:40:38;22.63;;;9.65;;
65936;SDS011;52707;52.086;5.418;2023-11-21T03:43:06;18.25;;;9.77;;
65936;SDS011;52707;52.086;5.418;2023-11-21T03:45:32;23.77;;;9.73;;
65936;SDS011;52707;52.086;5.418;2023-11-21T03:47:58;19.05;;;9.95;;
65936;SDS011;52707;52.086;5.418;2023-11-21T03:50:30;18.92;;;9.48;;
65936;SDS011;52707;52.086;5.418;2023-11-21T03:52:57;20.10;;;9.60;;
65936;SDS011;52707;52.086;5.418;2023-11-21T03:55:24;20.13;;;9.48;;
65936;SDS011;52707;52.086;5.418;2023-11-21T03:57:51;16.27;;;9.55;;
65936;SDS011;52707;52.086;5.418;2023-11-21T04:00:18;21.77;;;10.55;;
65936;SDS011;52707;52.086;5.418;2023-11-21T04:02:46;19.92;;;9.57;;
65936;SDS011;52707;52.086;5.418;2023-11-21T04:05:13;19.38;;;10.82;;
65936;SDS011;52707;52.086;5.418;2023-11-21T04:07:39;28.15;;;10.52;;
65936;SDS011;52707;52.086;5.418;2023-11-21T04:10:06;27.88;;;10.93;;
65936;SDS011;52707;52.086;5.418;2023-11-21T04:12:35;25.25;;;11.05;;
65936;SDS011;52707;52.086;5.418;2023-11-21T04:15:02;31.63;;;11.50;;
65936;SDS011;52707;52.086;5.418;2023-11-21T04:17:29;23.65;;;10.93;;
65936;SDS011;52707;52.086;5.418;2023-11-21T04:19:55;24.67;;;10.10;;
65936;SDS011;52707;52.086;5.418;2023-11-21T04:22:22;25.92;;;10.70;;
65936;SDS011;52707;52.086;5.418;2023-11-21T04:24:48;36.10;;;11.85;;
65936;SDS011;52707;52.086;5.418;2023-11-21T04:27:15;18.90;;;9.82;;
65936;SDS011;52707;52.086;5.418;2023-11-21T04:29:44;19.65;;;10.30;;
65936;SDS011;52707;52.086;5.418;2023-11-21T04:32:10;18.35;;;10.48;;
65936;SDS011;52707;52.086;5.418;2023-11-21T04:34:36;22.17;;;10.68;;
65936;SDS011;52707;52.086;5.418;2023-11-21T04:37:03;22.27;;;11.43;;
65936;SDS011;52707;52.086;5.418;2023-11-21T04:39:32;34.92;;;11.45;;
65936;SDS011;52707;52.086;5.418;2023-11-21T04:41:58;21.58;;;11.07;;
65936;SDS011;52707;52.086;5.418;2023-11-21T04:44:25;24.38;;;10.85;;
65936;SDS011;52707;52.086;5.418;2023-11-21T04:46:51;27.00;;;11.02;;
65936;SDS011;52707;52.086;5.418;2023-11-21T04:49:17;23.85;;;11.50;;
65936;SDS011;52707;52.086;5.418;2023-11-21T04:51:44;24.40;;;10.80;;
65936;SDS011;52707;52.086;5.418;2023-11-21T04:54:10;19.88;;;11.38;;
65936;SDS011;52707;52.086;5.418;2023-11-21T04:56:36;22.33;;;11.05;;
65936;SDS011;52707;52.086;5.418;2023-11-21T04:59:03;28.77;;;12.02;;
65936;SDS011;52707;52.086;5.418;2023-11-21T05:01:30;30.27;;;11.10;;
65936;SDS011;52707;52.086;5.418;2023-11-21T05:03:57;31.35;;;11.43;;
65936;SDS011;52707;52.086;5.418;2023-11-21T05:06:23;27.33;;;10.95;;
65936;SDS011;52707;52.086;5.418;2023-11-21T05:08:50;25.27;;;11.52;;
65936;SDS011;52707;52.086;5.418;2023-11-21T05:11:23;26.08;;;11.63;;
65936;SDS011;52707;52.086;5.418;2023-11-21T05:13:49;26.08;;;11.57;;
65936;SDS011;52707;52.086;5.418;2023-11-21T05:16:16;26.80;;;10.45;;
65936;SDS011;52707;52.086;5.418;2023-11-21T05:18:42;24.52;;;10.65;;
65936;SDS011;52707;52.086;5.418;2023-11-21T05:21:09;31.95;;;12.35;;
65936;SDS011;52707;52.086;5.418;2023-11-21T05:23:35;33.33;;;12.23;;
65936;SDS011;52707;52.086;5.418;2023-11-21T05:26:03;26.70;;;10.85;;
65936;SDS011;52707;52.086;5.418;2023-11-21T05:28:30;29.95;;;10.90;;
65936;SDS011;52707;52.086;5.418;2023-11-21T05:30:56;24.77;;;11.15;;
65936;SDS011;52707;52.086;5.418;2023-11-21T05:33:40;22.17;;;11.00;;
65936;SDS011;52707;52.086;5.418;2023-11-21T05:36:06;25.63;;;11.25;;
65936;SDS011;52707;52.086;5.418;2023-11-21T05:38:34;21.52;;;10.52;;
65936;SDS011;52707;52.086;5.418;2023-11-21T05:41:01;24.05;;;11.95;;
65936;SDS011;52707;52.086;5.418;2023-11-21T05:43:28;32.00;;;10.48;;
65936;SDS011;52707;52.086;5.418;2023-11-21T05:45:56;26.52;;;11.07;;
65936;SDS011;52707;52.086;5.418;2023-11-21T05:48:22;22.38;;;11.05;;
65936;SDS011;52707;52.086;5.418;2023-11-21T05:50:49;28.20;;;11.70;;
65936;SDS011;52707;52.086;5.418;2023-11-21T05:53:16;23.63;;;12.23;;
65936;SDS011;52707;52.086;5.418;2023-11-21T05:55:42;25.20;;;12.27;;
65936;SDS011;52707;52.086;5.418;2023-11-21T05:58:09;26.00;;;11.48;;
65936;SDS011;52707;52.086;5.418;2023-11-21T06:00:35;23.77;;;10.48;;
65936;SDS011;52707;52.086;5.418;2023-11-21T06:03:02;27.15;;;11.15;;
65936;SDS011;52707;52.086;5.418;2023-11-21T06:05:29;29.33;;;10.88;;
65936;SDS011;52707;52.086;5.418;2023-11-21T06:07:57;29.60;;;10.77;;
65936;SDS011;52707;52.086;5.418;2023-11-21T06:10:27;30.50;;;10.40;;
65936;SDS011;52707;52.086;5.418;2023-11-21T06:12:54;24.60;;;10.05;;
65936;SDS011;52707;52.086;5.418;2023-11-21T06:15:21;23.58;;;10.73;;
65936;SDS011;52707;52.086;5.418;2023-11-21T06:17:49;20.95;;;10.18;;
65936;SDS011;52707;52.086;5.418;2023-11-21T06:20:19;30.53;;;10.83;;
65936;SDS011;52707;52.086;5.418;2023-11-21T06:22:47;33.88;;;10.57;;
65936;SDS011;52707;52.086;5.418;2023-11-21T06:25:13;21.60;;;10.55;;
65936;SDS011;52707;52.086;5.418;2023-11-21T06:27:43;20.63;;;11.65;;
65936;SDS011;52707;52.086;5.418;2023-11-21T06:30:14;31.65;;;12.00;;
65936;SDS011;52707;52.086;5.418;2023-11-21T06:32:42;31.75;;;12.40;;
65936;SDS011;52707;52.086;5.418;2023-11-21T06:35:12;29.05;;;12.45;;
65936;SDS011;52707;52.086;5.418;2023-11-21T06:37:39;36.10;;;12.55;;
65936;SDS011;52707;52.086;5.418;2023-11-21T06:40:05;30.77;;;12.30;;
65936;SDS011;52707;52.086;5.418;2023-11-21T06:42:32;26.52;;;11.23;;
65936;SDS011;52707;52.086;5.418;2023-11-21T06:44:59;33.22;;;12.05;;
65936;SDS011;52707;52.086;5.418;2023-11-21T06:47:29;25.05;;;11.55;;
65936;SDS011;52707;52.086;5.418;2023-11-21T06:49:57;27.92;;;10.63;;
65936;SDS011;52707;52.086;5.418;2023-11-21T06:52:24;28.63;;;11.70;;
65936;SDS011;52707;52.086;5.418;2023-11-21T06:54:50;34.60;;;11.27;;
65936;SDS011;52707;52.086;5.418;2023-11-21T06:57:17;27.02;;;10.75;;
65936;SDS011;52707;52.086;5.418;2023-11-21T06:59:43;23.85;;;11.30;;
65936;SDS011;52707;52.086;5.418;2023-11-21T07:02:10;36.15;;;12.05;;
65936;SDS011;52707;52.086;5.418;2023-11-21T07:04:36;27.75;;;10.95;;
65936;SDS011;52707;52.086;5.418;2023-11-21T07:07:03;24.67;;;11.48;;
65936;SDS011;52707;52.086;5.418;2023-11-21T07:09:29;29.15;;;11.05;;
65936;SDS011;52707;52.086;5.418;2023-11-21T07:11:57;23.70;;;11.75;;
65936;SDS011;52707;52.086;5.418;2023-11-21T07:14:23;25.20;;;10.68;;
65936;SDS011;52707;52.086;5.418;2023-11-21T07:16:49;26.63;;;11.23;;
65936;SDS011;52707;52.086;5.418;2023-11-21T07:19:17;21.55;;;11.15;;
65936;SDS011;52707;52.086;5.418;2023-11-21T07:21:43;18.02;;;10.23;;
65936;SDS011;52707;52.086;5.418;2023-11-21T07:24:10;28.65;;;9.93;;
65936;SDS011;52707;52.086;5.418;2023-11-21T07:26:37;20.35;;;10.05;;
65936;SDS011;52707;52.086;5.418;2023-11-21T07:29:03;22.45;;;10.15;;
65936;SDS011;52707;52.086;5.418;2023-11-21T07:31:30;21.90;;;10.63;;
65936;SDS011;52707;52.086;5.418;2023-11-21T07:34:00;21.42;;;8.75;;
65936;SDS011;52707;52.086;5.418;2023-11-21T07:36:27;25.30;;;9.57;;
65936;SDS011;52707;52.086;5.418;2023-11-21T07:38:53;15.43;;;8.95;;
65936;SDS011;52707;52.086;5.418;2023-11-21T07:41:20;22.63;;;10.30;;
65936;SDS011;52707;52.086;5.418;2023-11-21T07:43:56;20.52;;;9.63;;
65936;SDS011;52707;52.086;5.418;2023-11-21T07:46:23;27.13;;;9.25;;
65936;SDS011;52707;52.086;5.418;2023-11-21T07:48:50;26.10;;;9.75;;
65936;SDS011;52707;52.086;5.418;2023-11-21T07:51:18;22.58;;;9.85;;
65936;SDS011;52707;52.086;5.418;2023-11-21T07:53:45;21.13;;;8.93;;
65936;SDS011;52707;52.086;5.418;2023-11-21T07:56:11;18.42;;;9.27;;
65936;SDS011;52707;52.086;5.418;2023-11-21T07:58:39;20.40;;;9.02;;
65936;SDS011;52707;52.086;5.418;2023-11-21T08:01:05;24.35;;;9.43;;
65936;SDS011;52707;52.086;5.418;2023-11-21T08:03:32;19.23;;;9.15;;
65936;SDS011;52707;52.086;5.418;2023-11-21T08:05:58;18.00;;;9.23;;
65936;SDS011;52707;52.086;5.418;2023-11-21T08:08:26;18.83;;;8.70;;
65936;SDS011;52707;52.086;5.418;2023-11-21T08:10:52;23.02;;;9.02;;
65936;SDS011;52707;52.086;5.418;2023-11-21T08:13:28;30.00;;;9.75;;
65936;SDS011;52707;52.086;5.418;2023-11-21T08:15:55;19.17;;;8.55;;
65936;SDS011;52707;52.086;5.418;2023-11-21T08:18:22;15.90;;;8.13;;
65936;SDS011;52707;52.086;5.418;2023-11-21T08:20:49;22.35;;;7.80;;
65936;SDS011;52707;52.086;5.418;2023-11-21T08:23:15;25.80;;;7.93;;
65936;SDS011;52707;52.086;5.418;2023-11-21T08:25:45;19.40;;;8.32;;
65936;SDS011;52707;52.086;5.418;2023-11-21T08:28:12;24.85;;;7.97;;
65936;SDS011;52707;52.086;5.418;2023-11-21T08:30:40;21.30;;;7.53;;
65936;SDS011;52707;52.086;5.418;2023-11-21T08:33:07;17.30;;;8.27;;
65936;SDS011;52707;52.086;5.418;2023-11-21T08:35:34;15.77;;;7.57;;
65936;SDS011;52707;52.086;5.418;2023-11-21T08:38:02;18.33;;;7.55;;
65936;SDS011;52707;52.086;5.418;2023-11-21T08:40:29;23.92;;;7.00;;
65936;SDS011;52707;52.086;5.418;2023-11-21T08:42:56;19.77;;;8.30;;
65936;SDS011;52707;52.086;5.418;2023-11-21T08:45:25;20.30;;;7.85;;
65936;SDS011;52707;52.086;5.418;2023-11-21T08:47:52;23.02;;;8.20;;
65936;SDS011;52707;52.086;5.418;2023-11-21T08:50:18;13.65;;;6.88;;
65936;SDS011;52707;52.086;5.418;2023-11-21T08:52:45;14.40;;;6.70;;
65936;SDS011;52707;52.086;5.418;2023-11-21T08:55:12;17.15;;;6.85;;
65936;SDS011;52707;52.086;5.418;2023-11-21T08:57:39;23.90;;;6.70;;
65936;SDS011;52707;52.086;5.418;2023-11-21T09:00:09;16.38;;;7.55;;
65936;SDS011;52707;52.086;5.418;2023-11-21T09:02:44;12.18;;;6.28;;
65936;SDS011;52707;52.086;5.418;2023-11-21T09:05:11;13.88;;;7.35;;
65936;SDS011;52707;52.086;5.418;2023-11-21T09:07:38;17.52;;;7.40;;
65936;SDS011;52707;52.086;5.418;2023-11-21T09:10:05;13.98;;;7.90;;
65936;SDS011;52707;52.086;5.418;2023-11-21T09:12:34;12.13;;;7.53;;
65936;SDS011;52707;52.086;5.418;2023-11-21T09:15:02;17.95;;;7.82;;
65936;SDS011;52707;52.086;5.418;2023-11-21T09:17:28;15.65;;;8.68;;
65936;SDS011;52707;52.086;5.418;2023-11-21T09:19:55;18.27;;;9.43;;
65936;SDS011;52707;52.086;5.418;2023-11-21T09:22:23;17.50;;;8.95;;
65936;SDS011;52707;52.086;5.418;2023-11-21T09:24:51;16.88;;;9.60;;
65936;SDS011;52707;52.086;5.418;2023-11-21T09:27:18;17.77;;;10.15;;
65936;SDS011;52707;52.086;5.418;2023-11-21T09:29:45;15.48;;;9.52;;
65936;SDS011;52707;52.086;5.418;2023-11-21T09:32:14;19.90;;;9.85;;
65936;SDS011;52707;52.086;5.418;2023-11-21T09:34:44;19.25;;;10.50;;
65936;SDS011;52707;52.086;5.418;2023-11-21T09:37:10;17.60;;;10.60;;
65936;SDS011;52707;52.086;5.418;2023-11-21T09:39:36;18.08;;;10.52;;
65936;SDS011;52707;52.086;5.418;2023-11-21T09:42:10;20.73;;;10.85;;
65936;SDS011;52707;52.086;5.418;2023-11-21T09:45:21;18.92;;;11.18;;
65936;SDS011;52707;52.086;5.418;2023-11-21T09:47:27;23.25;;;10.50;;
65936;SDS011;52707;52.086;5.418;2023-11-21T09:49:54;18.30;;;11.10;;
65936;SDS011;52707;52.086;5.418;2023-11-21T09:52:22;24.23;;;11.60;;
65936;SDS011;52707;52.086;5.418;2023-11-21T09:54:52;20.17;;;11.55;;
65936;SDS011;52707;52.086;5.418;2023-11-21T09:57:19;21.15;;;11.88;;
65936;SDS011;52707;52.086;5.418;2023-11-21T09:59:48;22.45;;;11.25;;
65936;SDS011;52707;52.086;5.418;2023-11-21T10:02:16;17.42;;;10.32;;
65936;SDS011;52707;52.086;5.418;2023-11-21T10:04:45;20.73;;;11.25;;
65936;SDS011;52707;52.086;5.418;2023-11-21T10:07:12;21.83;;;12.70;;
65936;SDS011;52707;52.086;5.418;2023-11-21T10:09:41;23.67;;;12.45;;
65936;SDS011;52707;52.086;5.418;2023-11-21T10:12:08;22.77;;;12.27;;
65936;SDS011;52707;52.086;5.418;2023-11-21T10:14:37;19.75;;;11.05;;
65936;SDS011;52707;52.086;5.418;2023-11-21T10:17:03;17.48;;;10.13;;
65936;SDS011;52707;52.086;5.418;2023-11-21T10:19:31;19.17;;;10.38;;
65936;SDS011;52707;52.086;5.418;2023-11-21T10:21:58;19.95;;;10.70;;
65936;SDS011;52707;52.086;5.418;2023-11-21T10:24:26;18.05;;;9.75;;
65936;SDS011;52707;52.086;5.418;2023-11-21T10:26:56;16.70;;;9.90;;
65936;SDS011;52707;52.086;5.418;2023-11-21T10:29:22;19.80;;;10.35;;
65936;SDS011;52707;52.086;5.418;2023-11-21T10:31:50;18.58;;;10.00;;
65936;SDS011;52707;52.086;5.418;2023-11-21T10:34:18;17.05;;;9.80;;
65936;SDS011;52707;52.086;5.418;2023-11-21T10:36:45;16.77;;;10.75;;
65936;SDS011;52707;52.086;5.418;2023-11-21T10:39:17;17.65;;;10.20;;
65936;SDS011;52707;52.086;5.418;2023-11-21T10:41:46;17.40;;;9.95;;
65936;SDS011;52707;52.086;5.418;2023-11-21T10:44:16;13.55;;;9.23;;
65936;SDS011;52707;52.086;5.418;2023-11-21T10:46:51;16.88;;;9.68;;
65936;SDS011;52707;52.086;5.418;2023-11-21T10:49:18;20.13;;;10.38;;
65936;SDS011;52707;52.086;5.418;2023-11-21T10:51:45;17.73;;;9.43;;
65936;SDS011;52707;52.086;5.418;2023-11-21T10:54:12;17.30;;;9.30;;
65936;SDS011;52707;52.086;5.418;2023-11-21T10:56:39;18.33;;;9.02;;
65936;SDS011;52707;52.086;5.418;2023-11-21T10:59:10;14.55;;;8.45;;
65936;SDS011;52707;52.086;5.418;2023-11-21T11:01:44;16.25;;;8.35;;
65936;SDS011;52707;52.086;5.418;2023-11-21T11:04:11;17.83;;;9.02;;
65936;SDS011;52707;52.086;5.418;2023-11-21T11:06:42;16.23;;;9.02;;
65936;SDS011;52707;52.086;5.418;2023-11-21T11:09:13;18.63;;;7.90;;
65936;SDS011;52707;52.086;5.418;2023-11-21T11:11:40;15.00;;;8.32;;
65936;SDS011;52707;52.086;5.418;2023-11-21T11:14:09;12.48;;;7.60;;
65936;SDS011;52707;52.086;5.418;2023-11-21T11:16:37;14.07;;;7.80;;
65936;SDS011;52707;52.086;5.418;2023-11-21T11:19:06;18.48;;;8.05;;
65936;SDS011;52707;52.086;5.418;2023-11-21T11:24:11;17.08;;;8.07;;
65936;SDS011;52707;52.086;5.418;2023-11-21T11:26:46;13.60;;;8.02;;
65936;SDS011;52707;52.086;5.418;2023-11-21T11:31:55;20.58;;;10.02;;
65936;SDS011;52707;52.086;5.418;2023-11-21T11:34:29;16.10;;;9.35;;
65936;SDS011;52707;52.086;5.418;2023-11-21T11:37:02;19.17;;;9.65;;
65936;SDS011;52707;52.086;5.418;2023-11-21T11:41:58;16.15;;;10.43;;
65936;SDS011;52707;52.086;5.418;2023-11-21T11:52:46;14.70;;;9.77;;
65936;SDS011;52707;52.086;5.418;2023-11-21T11:55:13;15.10;;;9.30;;
65936;SDS011;52707;52.086;5.418;2023-11-21T11:57:41;15.55;;;9.65;;
65936;SDS011;52707;52.086;5.418;2023-11-21T12:00:08;18.67;;;9.05;;
65936;SDS011;52707;52.086;5.418;2023-11-21T12:05:11;15.88;;;9.68;;
65936;SDS011;52707;52.086;5.418;2023-11-21T12:07:52;16.45;;;9.55;;
65936;SDS011;52707;52.086;5.418;2023-11-21T12:10:21;15.52;;;9.73;;
65936;SDS011;52707;52.086;5.418;2023-11-21T12:12:49;20.95;;;10.15;;
65936;SDS011;52707;52.086;5.418;2023-11-21T12:15:15;15.00;;;9.50;;
65936;SDS011;52707;52.086;5.418;2023-11-21T12:17:42;15.05;;;10.35;;
65936;SDS011;52707;52.086;5.418;2023-11-21T12:20:13;16.48;;;10.30;;
65936;SDS011;52707;52.086;5.418;2023-11-21T12:22:44;16.55;;;9.65;;
65936;SDS011;52707;52.086;5.418;2023-11-21T12:25:10;17.17;;;9.55;;
65936;SDS011;52707;52.086;5.418;2023-11-21T12:27:42;18.73;;;10.05;;
65936;SDS011;52707;52.086;5.418;2023-11-21T12:30:10;17.33;;;9.77;;
65936;SDS011;52707;52.086;5.418;2023-11-21T12:32:39;17.53;;;10.37;;
65936;SDS011;52707;52.086;5.418;2023-11-21T12:35:10;15.80;;;9.77;;
65936;SDS011;52707;52.086;5.418;2023-11-21T12:37:37;20.30;;;10.30;;
65936;SDS011;52707;52.086;5.418;2023-11-21T12:40:05;20.95;;;11.05;;
65936;SDS011;52707;52.086;5.418;2023-11-21T12:42:32;18.83;;;10.25;;
65936;SDS011;52707;52.086;5.418;2023-11-21T12:47:44;19.88;;;11.23;;
65936;SDS011;52707;52.086;5.418;2023-11-21T12:50:11;19.73;;;11.18;;
65936;SDS011;52707;52.086;5.418;2023-11-21T12:52:41;18.50;;;11.02;;
65936;SDS011;52707;52.086;5.418;2023-11-21T12:55:09;18.95;;;11.10;;
65936;SDS011;52707;52.086;5.418;2023-11-21T12:57:36;21.48;;;11.30;;
65936;SDS011;52707;52.086;5.418;2023-11-21T13:00:04;20.88;;;11.82;;
65936;SDS011;52707;52.086;5.418;2023-11-21T13:02:41;18.75;;;11.32;;
65936;SDS011;52707;52.086;5.418;2023-11-21T13:05:09;22.60;;;11.27;;
65936;SDS011;52707;52.086;5.418;2023-11-21T13:07:48;22.77;;;11.60;;
65936;SDS011;52707;52.086;5.418;2023-11-21T13:10:16;17.27;;;10.52;;
65936;SDS011;52707;52.086;5.418;2023-11-21T13:12:43;19.40;;;10.80;;
65936;SDS011;52707;52.086;5.418;2023-11-21T13:15:10;16.15;;;10.45;;
65936;SDS011;52707;52.086;5.418;2023-11-21T13:17:36;16.60;;;11.00;;
65936;SDS011;52707;52.086;5.418;2023-11-21T13:20:03;25.13;;;11.52;;
65936;SDS011;52707;52.086;5.418;2023-11-21T13:25:00;23.33;;;10.88;;
65936;SDS011;52707;52.086;5.418;2023-11-21T13:27:26;23.65;;;11.43;;
65936;SDS011;52707;52.086;5.418;2023-11-21T13:29:53;21.08;;;10.95;;
65936;SDS011;52707;52.086;5.418;2023-11-21T13:32:19;16.75;;;9.80;;
65936;SDS011;52707;52.086;5.418;2023-11-21T13:34:48;14.70;;;8.98;;
65936;SDS011;52707;52.086;5.418;2023-11-21T13:37:15;12.60;;;7.38;;
65936;SDS011;52707;52.086;5.418;2023-11-21T13:39:41;11.88;;;7.20;;
65936;SDS011;52707;52.086;5.418;2023-11-21T13:42:11;12.52;;;7.70;;
65936;SDS011;52707;52.086;5.418;2023-11-21T13:44:37;10.45;;;6.85;;
65936;SDS011;52707;52.086;5.418;2023-11-21T13:47:10;8.50;;;5.40;;
65936;SDS011;52707;52.086;5.418;2023-11-21T13:49:36;7.13;;;4.57;;
65936;SDS011;52707;52.086;5.418;2023-11-21T13:54:33;6.30;;;4.28;;
65936;SDS011;52707;52.086;5.418;2023-11-21T13:57:00;8.13;;;4.18;;
65936;SDS011;52707;52.086;5.418;2023-11-21T13:59:27;6.63;;;4.90;;
65936;SDS011;52707;52.086;5.418;2023-11-21T14:01:56;6.57;;;4.65;;
65936;SDS011;52707;52.086;5.418;2023-11-21T14:06:53;11.55;;;7.22;;
65936;SDS011;52707;52.086;5.418;2023-11-21T14:09:21;11.40;;;8.15;;
65936;SDS011;52707;52.086;5.418;2023-11-21T14:11:52;14.85;;;9.75;;
65936;SDS011;52707;52.086;5.418;2023-11-21T14:14:20;14.07;;;9.30;;
65936;SDS011;52707;52.086;5.418;2023-11-21T14:16:47;15.50;;;9.70;;
65936;SDS011;52707;52.086;5.418;2023-11-21T14:19:14;21.00;;;10.48;;
65936;SDS011;52707;52.086;5.418;2023-11-21T14:21:43;19.77;;;11.55;;
65936;SDS011;52707;52.086;5.418;2023-11-21T14:24:13;22.52;;;12.05;;
65936;SDS011;52707;52.086;5.418;2023-11-21T14:26:40;18.67;;;12.10;;
65936;SDS011;52707;52.086;5.418;2023-11-21T14:29:06;23.50;;;12.63;;
65936;SDS011;52707;52.086;5.418;2023-11-21T14:31:34;18.98;;;12.48;;
65936;SDS011;52707;52.086;5.418;2023-11-21T14:34:01;21.83;;;13.75;;
65936;SDS011;52707;52.086;5.418;2023-11-21T14:36:28;22.52;;;13.70;;
65936;SDS011;52707;52.086;5.418;2023-11-21T14:38:55;26.17;;;13.80;;
65936;SDS011;52707;52.086;5.418;2023-11-21T14:41:21;21.83;;;14.20;;
65936;SDS011;52707;52.086;5.418;2023-11-21T14:43:47;21.20;;;13.98;;
65936;SDS011;52707;52.086;5.418;2023-11-21T14:46:16;22.63;;;14.65;;
65936;SDS011;52707;52.086;5.418;2023-11-21T14:48:45;22.55;;;14.93;;
65936;SDS011;52707;52.086;5.418;2023-11-21T14:51:25;23.45;;;14.05;;
65936;SDS011;52707;52.086;5.418;2023-11-21T14:53:57;24.38;;;13.93;;
65936;SDS011;52707;52.086;5.418;2023-11-21T14:56:32;22.75;;;14.82;;
65936;SDS011;52707;52.086;5.418;2023-11-21T14:59:01;22.48;;;15.23;;
65936;SDS011;52707;52.086;5.418;2023-11-21T15:01:38;26.50;;;14.75;;